TimeMDT,TemperatureF,Dew PointF,Humidity,Sea Level PressureIn,VisibilityMPH,Wind Direction,Wind SpeedMPH,Gust SpeedMPH,PrecipitationIn,Events,Conditions,WindDirDegrees,DateUTC
12:53 AM,63.0,54.0,72,29.88,10.0,WSW,8.1,-,N/A,,Clear,250,2013-07-25 06:53:00
1:53 AM,63.0,54.0,72,29.85,10.0,WSW,6.9,-,N/A,,Clear,240,2013-07-25 07:53:00
2:53 AM,63.0,53.1,70,29.86,10.0,WSW,9.2,-,N/A,,Clear,240,2013-07-25 08:53:00
3:53 AM,61.0,51.1,70,29.87,10.0,SW,5.8,-,N/A,,Clear,220,2013-07-25 09:53:00
4:53 AM,62.1,51.1,67,29.87,10.0,WSW,6.9,-,N/A,,Clear,250,2013-07-25 10:53:00
5:53 AM,63.0,52.0,67,29.94,10.0,NW,12.7,18.4,N/A,,Clear,310,2013-07-25 11:53:00
6:53 AM,62.1,52.0,70,30.01,10.0,NNE,15.0,21.9,N/A,,Partly Cloudy,20,2013-07-25 12:53:00
7:53 AM,64.0,52.0,65,30.04,10.0,ENE,13.8,-,N/A,,Clear,70,2013-07-25 13:53:00
8:53 AM,66.0,53.1,63,30.06,10.0,East,13.8,-,N/A,,Clear,80,2013-07-25 14:53:00
9:53 AM,70.0,52.0,53,30.06,10.0,ESE,9.2,-,N/A,,Clear,110,2013-07-25 15:53:00
10:53 AM,73.9,50.0,43,30.07,10.0,ENE,10.4,17.3,N/A,,Clear,60,2013-07-25 16:53:00
11:53 AM,75.9,48.9,38,30.05,10.0,Variable,5.8,-,N/A,,Clear,0,2013-07-25 17:53:00
12:53 PM,77.0,45.0,32,30.06,10.0,NNE,12.7,-,N/A,,Partly Cloudy,30,2013-07-25 18:53:00
1:53 PM,80.1,43.0,27,30.04,10.0,East,6.9,-,N/A,,Clear,90,2013-07-25 19:53:00
2:53 PM,82.0,44.1,26,30.01,10.0,NE,8.1,-,N/A,,Clear,40,2013-07-25 20:53:00
3:53 PM,82.9,42.1,24,30.00,10.0,Variable,3.5,-,N/A,,Clear,0,2013-07-25 21:53:00
4:53 PM,84.0,41.0,22,29.99,10.0,NNE,12.7,17.3,N/A,,Partly Cloudy,30,2013-07-25 22:53:00
5:53 PM,80.1,42.1,26,29.99,10.0,East,12.7,-,N/A,,Scattered Clouds,80,2013-07-25 23:53:00
6:53 PM,77.0,43.0,30,30.03,10.0,ENE,4.6,-,0.00,Rain,Light Rain,70,2013-07-26 00:53:00
7:20 PM,71.6,48.2,43,30.24,10.0,SSE,12.7,19.6,0.00,Rain-Thunderstorm,Light Thunderstorms and Rain,160,2013-07-26 01:20:00
7:46 PM,69.8,50.0,49,30.23,10.0,South,13.8,-,0.00,Thunderstorm,Overcast,190,2013-07-26 01:46:00
7:53 PM,70.0,46.9,44,30.04,10.0,South,18.4,25.3,0.00,Thunderstorm,Overcast,180,2013-07-26 01:53:00
8:07 PM,69.8,46.4,43,30.22,10.0,South,15.0,-,N/A,,Mostly Cloudy,180,2013-07-26 02:07:00
8:53 PM,69.1,46.9,45,30.06,10.0,SSW,3.5,-,N/A,,Clear,200,2013-07-26 02:53:00
9:53 PM,66.0,46.0,48,30.10,10.0,WSW,10.4,-,N/A,Thunderstorm,Mostly Cloudy,240,2013-07-26 03:53:00
10:33 PM,62.6,51.8,68,30.30,8.0,ENE,9.2,19.6,0.02,Rain,Light Rain,70,2013-07-26 04:33:00
10:53 PM,59.0,53.1,81,30.11,10.0,Calm,Calm,-,0.02,,Partly Cloudy,0,2013-07-26 04:53:00
11:53 PM,55.9,52.0,87,30.13,10.0,NW,5.8,-,N/A,,Clear,310,2013-07-26 05:53:00